sensor_id;sensor_type;location;lat;lon;timestamp;temperature;humidity
10692;DHT22;5396;50.950;6.988;2024-03-02T00:00:06;8.10;99.90
10692;DHT22;5396;50.950;6.988;2024-03-02T00:02:39;8.10;99.90
10692;DHT22;5396;50.950;6.988;2024-03-02T00:05:05;8.20;99.90
10692;DHT22;5396;50.950;6.988;2024-03-02T00:07:31;8.20;99.90
10692;DHT22;5396;50.950;6.988;2024-03-02T00:09:57;8.20;99.90
10692;DHT22;5396;50.950;6.988;2024-03-02T00:12:22;8.20;99.90
10692;DHT22;5396;50.950;6.988;2024-03-02T00:14:48;8.30;99.90
10692;DHT22;5396;50.950;6.988;2024-03-02T00:17:17;8.20;99.90
10692;DHT22;5396;50.950;6.988;2024-03-02T00:19:44;8.20;99.90
10692;DHT22;5396;50.950;6.988;2024-03-02T00:22:09;8.20;99.90
10692;DHT22;5396;50.950;6.988;2024-03-02T00:24:35;8.20;99.90
10692;DHT22;5396;50.950;6.988;2024-03-02T00:27:01;8.20;99.90
10692;DHT22;5396;50.950;6.988;2024-03-02T00:29:29;8.20;99.90
10692;DHT22;5396;50.950;6.988;2024-03-02T00:31:54;8.30;99.90
10692;DHT22;5396;50.950;6.988;2024-03-02T00:34:21;8.40;99.90
10692;DHT22;5396;50.950;6.988;2024-03-02T00:36:46;8.40;99.90
10692;DHT22;5396;50.950;6.988;2024-03-02T00:39:14;8.40;99.90
10692;DHT22;5396;50.950;6.988;2024-03-02T00:41:40;8.40;99.90
10692;DHT22;5396;50.950;6.988;2024-03-02T00:44:07;8.40;99.90
10692;DHT22;5396;50.950;6.988;2024-03-02T00:49:00;8.50;99.90
10692;DHT22;5396;50.950;6.988;2024-03-02T00:51:27;8.50;99.90
10692;DHT22;5396;50.950;6.988;2024-03-02T00:53:53;8.50;99.90
10692;DHT22;5396;50.950;6.988;2024-03-02T00:56:23;8.50;99.90
10692;DHT22;5396;50.950;6.988;2024-03-02T00:58:49;8.50;99.90
10692;DHT22;5396;50.950;6.988;2024-03-02T01:01:15;8.50;99.90
10692;DHT22;5396;50.950;6.988;2024-03-02T01:03:41;8.50;99.90
10692;DHT22;5396;50.950;6.988;2024-03-02T01:06:08;8.50;99.90
10692;DHT22;5396;50.950;6.988;2024-03-02T01:08:34;8.50;99.90
10692;DHT22;5396;50.950;6.988;2024-03-02T01:11:00;8.40;99.90
10692;DHT22;5396;50.950;6.988;2024-03-02T01:13:26;8.40;99.90
10692;DHT22;5396;50.950;6.988;2024-03-02T01:15:51;8.40;99.90
10692;DHT22;5396;50.950;6.988;2024-03-02T01:18:17;8.30;99.90
10692;DHT22;5396;50.950;6.988;2024-03-02T01:20:42;8.30;99.90
10692;DHT22;5396;50.950;6.988;2024-03-02T01:23:08;8.30;99.90
10692;DHT22;5396;50.950;6.988;2024-03-02T01:25:33;8.20;99.90
10692;DHT22;5396;50.950;6.988;2024-03-02T01:27:59;8.20;99.90
10692;DHT22;5396;50.950;6.988;2024-03-02T01:30:24;8.20;99.90
10692;DHT22;5396;50.950;6.988;2024-03-02T01:32:50;8.20;99.90
10692;DHT22;5396;50.950;6.988;2024-03-02T01:35:16;8.10;99.90
10692;DHT22;5396;50.950;6.988;2024-03-02T01:37:41;8.10;99.90
10692;DHT22;5396;50.950;6.988;2024-03-02T01:40:07;8.10;99.90
10692;DHT22;5396;50.950;6.988;2024-03-02T01:42:40;8.10;99.90
10692;DHT22;5396;50.950;6.988;2024-03-02T01:45:06;8.20;99.90
10692;DHT22;5396;50.950;6.988;2024-03-02T01:47:31;8.20;99.90
10692;DHT22;5396;50.950;6.988;2024-03-02T01:49:57;8.20;99.90
10692;DHT22;5396;50.950;6.988;2024-03-02T01:52:23;8.20;99.90
10692;DHT22;5396;50.950;6.988;2024-03-02T01:54:49;8.30;99.90
10692;DHT22;5396;50.950;6.988;2024-03-02T01:57:14;8.30;99.90
10692;DHT22;5396;50.950;6.988;2024-03-02T01:59:40;8.30;99.90
10692;DHT22;5396;50.950;6.988;2024-03-02T02:02:05;8.30;99.90
10692;DHT22;5396;50.950;6.988;2024-03-02T02:04:31;8.30;99.90
10692;DHT22;5396;50.950;6.988;2024-03-02T02:06:56;8.30;99.90
10692;DHT22;5396;50.950;6.988;2024-03-02T02:09:22;8.30;99.90
10692;DHT22;5396;50.950;6.988;2024-03-02T02:11:47;8.40;99.90
10692;DHT22;5396;50.950;6.988;2024-03-02T02:14:13;8.40;99.90
10692;DHT22;5396;50.950;6.988;2024-03-02T02:16:38;8.40;99.90
10692;DHT22;5396;50.950;6.988;2024-03-02T02:19:04;8.40;99.90
10692;DHT22;5396;50.950;6.988;2024-03-02T02:21:29;8.40;99.90
10692;DHT22;5396;50.950;6.988;2024-03-02T02:23:55;8.40;99.90
10692;DHT22;5396;50.950;6.988;2024-03-02T02:26:20;8.40;99.90
10692;DHT22;5396;50.950;6.988;2024-03-02T02:28:46;8.40;99.90
10692;DHT22;5396;50.950;6.988;2024-03-02T02:31:14;8.40;99.90
10692;DHT22;5396;50.950;6.988;2024-03-02T02:33:40;8.30;99.90
10692;DHT22;5396;50.950;6.988;2024-03-02T02:36:05;8.30;99.90
10692;DHT22;5396;50.950;6.988;2024-03-02T02:38:32;8.30;99.90
10692;DHT22;5396;50.950;6.988;2024-03-02T02:40:58;8.40;99.90
10692;DHT22;5396;50.950;6.988;2024-03-02T02:43:24;8.40;99.90
10692;DHT22;5396;50.950;6.988;2024-03-02T02:45:49;8.40;99.90
10692;DHT22;5396;50.950;6.988;2024-03-02T02:48:14;8.40;99.90
10692;DHT22;5396;50.950;6.988;2024-03-02T02:50:41;8.40;99.90
10692;DHT22;5396;50.950;6.988;2024-03-02T02:53:06;8.30;99.90
10692;DHT22;5396;50.950;6.988;2024-03-02T02:55:34;8.30;99.90
10692;DHT22;5396;50.950;6.988;2024-03-02T02:58:00;8.30;99.90
10692;DHT22;5396;50.950;6.988;2024-03-02T03:00:26;8.30;99.90
10692;DHT22;5396;50.950;6.988;2024-03-02T03:02:51;8.30;99.90
10692;DHT22;5396;50.950;6.988;2024-03-02T03:05:17;8.30;99.90
10692;DHT22;5396;50.950;6.988;2024-03-02T03:07:43;8.30;99.90
10692;DHT22;5396;50.950;6.988;2024-03-02T03:10:09;8.40;99.90
10692;DHT22;5396;50.950;6.988;2024-03-02T03:12:35;8.40;99.90
10692;DHT22;5396;50.950;6.988;2024-03-02T03:15:01;8.40;99.90
10692;DHT22;5396;50.950;6.988;2024-03-02T03:17:26;8.40;99.90
10692;DHT22;5396;50.950;6.988;2024-03-02T03:19:55;8.40;99.90
10692;DHT22;5396;50.950;6.988;2024-03-02T03:22:20;8.30;99.90
10692;DHT22;5396;50.950;6.988;2024-03-02T03:24:45;8.40;99.90
10692;DHT22;5396;50.950;6.988;2024-03-02T03:27:11;8.40;99.90
10692;DHT22;5396;50.950;6.988;2024-03-02T03:29:37;8.40;99.90
10692;DHT22;5396;50.950;6.988;2024-03-02T03:32:03;8.40;99.90
10692;DHT22;5396;50.950;6.988;2024-03-02T03:34:32;8.30;99.90
10692;DHT22;5396;50.950;6.988;2024-03-02T03:36:57;8.30;99.90
10692;DHT22;5396;50.950;6.988;2024-03-02T03:39:23;8.30;99.90
10692;DHT22;5396;50.950;6.988;2024-03-02T03:41:49;8.30;99.90
10692;DHT22;5396;50.950;6.988;2024-03-02T03:44:15;8.20;99.90
10692;DHT22;5396;50.950;6.988;2024-03-02T03:46:41;8.20;99.90
10692;DHT22;5396;50.950;6.988;2024-03-02T03:49:06;8.20;99.90
10692;DHT22;5396;50.950;6.988;2024-03-02T03:51:33;8.20;99.90
10692;DHT22;5396;50.950;6.988;2024-03-02T03:53:58;8.20;99.90
10692;DHT22;5396;50.950;6.988;2024-03-02T03:56:24;8.20;99.90
10692;DHT22;5396;50.950;6.988;2024-03-02T03:58:49;8.10;99.90
10692;DHT22;5396;50.950;6.988;2024-03-02T04:01:15;8.00;99.90
10692;DHT22;5396;50.950;6.988;2024-03-02T04:03:40;8.00;99.90
10692;DHT22;5396;50.950;6.988;2024-03-02T04:06:06;8.00;99.90
10692;DHT22;5396;50.950;6.988;2024-03-02T04:08:31;7.90;99.90
10692;DHT22;5396;50.950;6.988;2024-03-02T04:10:57;7.90;99.90
10692;DHT22;5396;50.950;6.988;2024-03-02T04:13:22;7.80;99.90
10692;DHT22;5396;50.950;6.988;2024-03-02T04:15:48;7.70;99.90
10692;DHT22;5396;50.950;6.988;2024-03-02T04:18:13;7.70;99.90
10692;DHT22;5396;50.950;6.988;2024-03-02T04:20:38;7.60;99.90
10692;DHT22;5396;50.950;6.988;2024-03-02T04:23:04;7.50;99.90
10692;DHT22;5396;50.950;6.988;2024-03-02T04:25:29;7.50;99.90
10692;DHT22;5396;50.950;6.988;2024-03-02T04:27:55;7.50;99.90
10692;DHT22;5396;50.950;6.988;2024-03-02T04:30:20;7.50;99.90
10692;DHT22;5396;50.950;6.988;2024-03-02T04:32:46;7.50;99.90
10692;DHT22;5396;50.950;6.988;2024-03-02T04:35:12;7.50;99.90
10692;DHT22;5396;50.950;6.988;2024-03-02T04:37:38;7.50;99.90
10692;DHT22;5396;50.950;6.988;2024-03-02T04:40:04;7.50;99.90
10692;DHT22;5396;50.950;6.988;2024-03-02T04:42:33;7.50;99.90
10692;DHT22;5396;50.950;6.988;2024-03-02T04:44:59;7.50;99.90
10692;DHT22;5396;50.950;6.988;2024-03-02T04:47:24;7.40;99.90
10692;DHT22;5396;50.950;6.988;2024-03-02T04:49:50;7.30;99.90
10692;DHT22;5396;50.950;6.988;2024-03-02T04:52:16;7.30;99.90
10692;DHT22;5396;50.950;6.988;2024-03-02T04:54:42;7.20;99.90
10692;DHT22;5396;50.950;6.988;2024-03-02T04:57:26;7.20;99.90
10692;DHT22;5396;50.950;6.988;2024-03-02T04:59:52;7.10;99.90
10692;DHT22;5396;50.950;6.988;2024-03-02T05:02:17;7.10;99.90
10692;DHT22;5396;50.950;6.988;2024-03-02T05:04:43;7.10;99.90
10692;DHT22;5396;50.950;6.988;2024-03-02T05:07:08;7.10;99.90
10692;DHT22;5396;50.950;6.988;2024-03-02T05:09:34;7.10;99.90
10692;DHT22;5396;50.950;6.988;2024-03-02T05:12:00;7.00;99.90
10692;DHT22;5396;50.950;6.988;2024-03-02T05:14:42;7.00;99.90
10692;DHT22;5396;50.950;6.988;2024-03-02T05:17:08;6.90;99.90
10692;DHT22;5396;50.950;6.988;2024-03-02T05:19:33;6.90;99.90
10692;DHT22;5396;50.950;6.988;2024-03-02T05:21:59;7.00;99.90
10692;DHT22;5396;50.950;6.988;2024-03-02T05:24:24;7.00;99.90
10692;DHT22;5396;50.950;6.988;2024-03-02T05:26:52;7.10;99.90
10692;DHT22;5396;50.950;6.988;2024-03-02T05:29:18;7.00;99.90
10692;DHT22;5396;50.950;6.988;2024-03-02T05:31:44;7.10;99.90
10692;DHT22;5396;50.950;6.988;2024-03-02T05:34:09;7.00;99.90
10692;DHT22;5396;50.950;6.988;2024-03-02T05:36:35;7.00;99.90
10692;DHT22;5396;50.950;6.988;2024-03-02T05:39:00;7.00;99.90
10692;DHT22;5396;50.950;6.988;2024-03-02T05:41:26;7.00;99.90
10692;DHT22;5396;50.950;6.988;2024-03-02T05:43:52;7.00;99.90
10692;DHT22;5396;50.950;6.988;2024-03-02T05:46:17;7.00;99.90
10692;DHT22;5396;50.950;6.988;2024-03-02T05:48:43;7.00;99.90
10692;DHT22;5396;50.950;6.988;2024-03-02T05:51:08;6.90;99.90
10692;DHT22;5396;50.950;6.988;2024-03-02T05:53:34;6.90;99.90
10692;DHT22;5396;50.950;6.988;2024-03-02T05:55:59;7.00;99.90
10692;DHT22;5396;50.950;6.988;2024-03-02T05:58:25;7.00;99.90
10692;DHT22;5396;50.950;6.988;2024-03-02T06:00:53;7.00;99.90
10692;DHT22;5396;50.950;6.988;2024-03-02T06:03:19;7.00;99.90
10692;DHT22;5396;50.950;6.988;2024-03-02T06:05:45;7.00;99.90
10692;DHT22;5396;50.950;6.988;2024-03-02T06:08:10;7.00;99.90
10692;DHT22;5396;50.950;6.988;2024-03-02T06:10:36;7.00;99.90
10692;DHT22;5396;50.950;6.988;2024-03-02T06:13:01;7.10;99.90
10692;DHT22;5396;50.950;6.988;2024-03-02T06:15:27;7.10;99.90
10692;DHT22;5396;50.950;6.988;2024-03-02T06:17:52;7.10;99.90
10692;DHT22;5396;50.950;6.988;2024-03-02T06:20:18;7.10;99.90
10692;DHT22;5396;50.950;6.988;2024-03-02T06:22:43;7.10;99.90
10692;DHT22;5396;50.950;6.988;2024-03-02T06:25:09;7.10;99.90
10692;DHT22;5396;50.950;6.988;2024-03-02T06:27:34;7.10;99.90
10692;DHT22;5396;50.950;6.988;2024-03-02T06:30:00;7.10;99.90
10692;DHT22;5396;50.950;6.988;2024-03-02T06:32:25;7.10;99.90
10692;DHT22;5396;50.950;6.988;2024-03-02T06:34:51;7.10;99.90
10692;DHT22;5396;50.950;6.988;2024-03-02T06:37:16;7.10;99.90
10692;DHT22;5396;50.950;6.988;2024-03-02T06:39:42;7.10;99.90
10692;DHT22;5396;50.950;6.988;2024-03-02T06:42:07;7.10;99.90
10692;DHT22;5396;50.950;6.988;2024-03-02T06:44:33;7.10;99.90
10692;DHT22;5396;50.950;6.988;2024-03-02T06:46:59;7.10;99.90
10692;DHT22;5396;50.950;6.988;2024-03-02T06:49:24;7.10;99.90
10692;DHT22;5396;50.950;6.988;2024-03-02T06:51:50;7.20;99.90
10692;DHT22;5396;50.950;6.988;2024-03-02T06:54:15;7.10;99.90
10692;DHT22;5396;50.950;6.988;2024-03-02T06:56:41;7.10;99.90
10692;DHT22;5396;50.950;6.988;2024-03-02T06:59:06;7.10;99.90
10692;DHT22;5396;50.950;6.988;2024-03-02T07:01:33;7.20;99.90
10692;DHT22;5396;50.950;6.988;2024-03-02T07:03:58;7.20;99.90
10692;DHT22;5396;50.950;6.988;2024-03-02T07:06:24;7.20;99.90
10692;DHT22;5396;50.950;6.988;2024-03-02T07:08:49;7.30;99.90
10692;DHT22;5396;50.950;6.988;2024-03-02T07:11:15;7.40;99.90
10692;DHT22;5396;50.950;6.988;2024-03-02T07:13:40;7.50;99.90
10692;DHT22;5396;50.950;6.988;2024-03-02T07:16:06;7.50;99.90
10692;DHT22;5396;50.950;6.988;2024-03-02T07:18:51;7.50;99.90
10692;DHT22;5396;50.950;6.988;2024-03-02T07:21:17;7.50;99.90
10692;DHT22;5396;50.950;6.988;2024-03-02T07:23:43;7.60;99.90
10692;DHT22;5396;50.950;6.988;2024-03-02T07:26:08;7.70;99.90
10692;DHT22;5396;50.950;6.988;2024-03-02T07:28:34;7.80;99.90
10692;DHT22;5396;50.950;6.988;2024-03-02T07:31:00;7.80;99.90
10692;DHT22;5396;50.950;6.988;2024-03-02T07:33:26;7.90;99.90
10692;DHT22;5396;50.950;6.988;2024-03-02T07:35:52;8.00;99.90
10692;DHT22;5396;50.950;6.988;2024-03-02T07:38:17;8.00;99.90
10692;DHT22;5396;50.950;6.988;2024-03-02T07:40:43;8.00;99.90
10692;DHT22;5396;50.950;6.988;2024-03-02T07:43:09;8.10;99.90
10692;DHT22;5396;50.950;6.988;2024-03-02T07:45:34;8.10;99.90
10692;DHT22;5396;50.950;6.988;2024-03-02T07:48:01;8.10;99.90
10692;DHT22;5396;50.950;6.988;2024-03-02T07:50:28;8.20;99.90
10692;DHT22;5396;50.950;6.988;2024-03-02T07:52:54;8.30;99.90
10692;DHT22;5396;50.950;6.988;2024-03-02T07:55:19;8.30;99.90
10692;DHT22;5396;50.950;6.988;2024-03-02T07:57:45;8.30;99.90
10692;DHT22;5396;50.950;6.988;2024-03-02T08:00:10;8.30;99.90
10692;DHT22;5396;50.950;6.988;2024-03-02T08:02:36;8.30;99.90
10692;DHT22;5396;50.950;6.988;2024-03-02T08:05:01;8.40;99.90
10692;DHT22;5396;50.950;6.988;2024-03-02T08:07:27;8.50;99.90
10692;DHT22;5396;50.950;6.988;2024-03-02T08:09:52;8.50;99.90
10692;DHT22;5396;50.950;6.988;2024-03-02T08:12:18;8.50;99.90
10692;DHT22;5396;50.950;6.988;2024-03-02T08:14:45;8.60;99.90
10692;DHT22;5396;50.950;6.988;2024-03-02T08:17:10;8.70;99.90
10692;DHT22;5396;50.950;6.988;2024-03-02T08:19:36;8.70;99.90
10692;DHT22;5396;50.950;6.988;2024-03-02T08:22:02;8.80;99.90
10692;DHT22;5396;50.950;6.988;2024-03-02T08:24:28;8.90;99.90
10692;DHT22;5396;50.950;6.988;2024-03-02T08:26:54;9.00;99.90
10692;DHT22;5396;50.950;6.988;2024-03-02T08:29:19;9.10;99.90
10692;DHT22;5396;50.950;6.988;2024-03-02T08:31:44;9.20;99.90
10692;DHT22;5396;50.950;6.988;2024-03-02T08:34:10;9.30;99.90
10692;DHT22;5396;50.950;6.988;2024-03-02T08:36:35;9.50;99.90
10692;DHT22;5396;50.950;6.988;2024-03-02T08:39:01;9.50;99.90
10692;DHT22;5396;50.950;6.988;2024-03-02T08:41:27;9.60;99.90
10692;DHT22;5396;50.950;6.988;2024-03-02T08:43:53;9.60;99.90
10692;DHT22;5396;50.950;6.988;2024-03-02T08:46:18;9.70;99.90
10692;DHT22;5396;50.950;6.988;2024-03-02T08:48:44;9.70;99.90
10692;DHT22;5396;50.950;6.988;2024-03-02T08:51:09;9.70;99.90
10692;DHT22;5396;50.950;6.988;2024-03-02T08:53:36;9.80;99.90
10692;DHT22;5396;50.950;6.988;2024-03-02T08:56:01;9.80;99.90
10692;DHT22;5396;50.950;6.988;2024-03-02T08:58:27;9.80;99.90
10692;DHT22;5396;50.950;6.988;2024-03-02T09:00:52;9.70;99.90
10692;DHT22;5396;50.950;6.988;2024-03-02T09:03:18;9.80;99.90
10692;DHT22;5396;50.950;6.988;2024-03-02T09:05:43;9.80;99.90
10692;DHT22;5396;50.950;6.988;2024-03-02T09:08:10;9.90;99.90
10692;DHT22;5396;50.950;6.988;2024-03-02T09:10:35;10.00;99.90
10692;DHT22;5396;50.950;6.988;2024-03-02T09:13:01;10.00;99.90
10692;DHT22;5396;50.950;6.988;2024-03-02T09:15:26;10.10;99.90
10692;DHT22;5396;50.950;6.988;2024-03-02T09:17:55;10.10;99.90
10692;DHT22;5396;50.950;6.988;2024-03-02T09:20:20;10.10;99.90
10692;DHT22;5396;50.950;6.988;2024-03-02T09:22:46;10.30;99.90
10692;DHT22;5396;50.950;6.988;2024-03-02T09:25:13;10.30;99.90
10692;DHT22;5396;50.950;6.988;2024-03-02T09:27:38;10.40;99.90
10692;DHT22;5396;50.950;6.988;2024-03-02T09:30:07;10.40;99.90
10692;DHT22;5396;50.950;6.988;2024-03-02T09:32:33;10.40;99.90
10692;DHT22;5396;50.950;6.988;2024-03-02T09:34:58;10.50;99.90
10692;DHT22;5396;50.950;6.988;2024-03-02T09:37:24;10.50;99.90
10692;DHT22;5396;50.950;6.988;2024-03-02T09:39:49;10.60;99.90
10692;DHT22;5396;50.950;6.988;2024-03-02T09:42:15;10.60;99.90
10692;DHT22;5396;50.950;6.988;2024-03-02T09:44:40;10.60;99.90
10692;DHT22;5396;50.950;6.988;2024-03-02T09:47:07;10.70;99.90
10692;DHT22;5396;50.950;6.988;2024-03-02T09:49:33;10.70;99.90
10692;DHT22;5396;50.950;6.988;2024-03-02T09:51:58;10.80;99.90
10692;DHT22;5396;50.950;6.988;2024-03-02T09:54:24;10.80;99.90
10692;DHT22;5396;50.950;6.988;2024-03-02T09:56:50;10.80;99.90
10692;DHT22;5396;50.950;6.988;2024-03-02T09:59:16;10.90;99.90
10692;DHT22;5396;50.950;6.988;2024-03-02T10:01:57;10.90;99.90
10692;DHT22;5396;50.950;6.988;2024-03-02T10:04:26;10.90;99.90
10692;DHT22;5396;50.950;6.988;2024-03-02T10:06:52;10.90;99.90
10692;DHT22;5396;50.950;6.988;2024-03-02T10:09:34;10.90;99.90
10692;DHT22;5396;50.950;6.988;2024-03-02T10:12:06;11.00;99.90
10692;DHT22;5396;50.950;6.988;2024-03-02T10:14:32;11.00;99.90
10692;DHT22;5396;50.950;6.988;2024-03-02T10:17:04;11.00;99.90
10692;DHT22;5396;50.950;6.988;2024-03-02T10:19:30;11.00;99.90
10692;DHT22;5396;50.950;6.988;2024-03-02T10:21:58;11.10;99.90
10692;DHT22;5396;50.950;6.988;2024-03-02T10:24:24;11.10;99.90
10692;DHT22;5396;50.950;6.988;2024-03-02T10:26:50;11.20;99.90
10692;DHT22;5396;50.950;6.988;2024-03-02T10:29:16;11.40;99.90
10692;DHT22;5396;50.950;6.988;2024-03-02T10:31:43;11.50;99.90
10692;DHT22;5396;50.950;6.988;2024-03-02T10:34:09;11.60;99.90
10692;DHT22;5396;50.950;6.988;2024-03-02T10:36:35;11.60;99.90
10692;DHT22;5396;50.950;6.988;2024-03-02T10:39:02;11.70;99.90
10692;DHT22;5396;50.950;6.988;2024-03-02T10:41:29;11.70;99.90
10692;DHT22;5396;50.950;6.988;2024-03-02T10:43:57;11.80;99.90
10692;DHT22;5396;50.950;6.988;2024-03-02T10:46:30;11.90;99.90
10692;DHT22;5396;50.950;6.988;2024-03-02T10:48:56;12.00;99.90
10692;DHT22;5396;50.950;6.988;2024-03-02T10:51:27;12.10;99.90
10692;DHT22;5396;50.950;6.988;2024-03-02T10:53:54;12.20;99.90
10692;DHT22;5396;50.950;6.988;2024-03-02T10:56:21;12.20;99.90
10692;DHT22;5396;50.950;6.988;2024-03-02T10:58:54;12.20;99.90
10692;DHT22;5396;50.950;6.988;2024-03-02T11:01:20;12.30;99.90
10692;DHT22;5396;50.950;6.988;2024-03-02T11:06:12;12.40;99.90
10692;DHT22;5396;50.950;6.988;2024-03-02T11:08:38;12.50;99.90
10692;DHT22;5396;50.950;6.988;2024-03-02T11:11:12;12.50;99.90
10692;DHT22;5396;50.950;6.988;2024-03-02T11:13:40;12.60;99.90
10692;DHT22;5396;50.950;6.988;2024-03-02T11:16:09;12.60;99.90
10692;DHT22;5396;50.950;6.988;2024-03-02T11:18:38;12.60;99.90
10692;DHT22;5396;50.950;6.988;2024-03-02T11:21:04;12.60;99.90
10692;DHT22;5396;50.950;6.988;2024-03-02T11:23:33;12.60;99.90
10692;DHT22;5396;50.950;6.988;2024-03-02T11:28:44;12.80;99.90
10692;DHT22;5396;50.950;6.988;2024-03-02T11:31:09;12.80;99.90
10692;DHT22;5396;50.950;6.988;2024-03-02T11:33:35;12.90;99.90
10692;DHT22;5396;50.950;6.988;2024-03-02T11:36:00;12.90;99.90
10692;DHT22;5396;50.950;6.988;2024-03-02T11:38:30;13.00;99.90
10692;DHT22;5396;50.950;6.988;2024-03-02T11:40:55;13.00;99.90
10692;DHT22;5396;50.950;6.988;2024-03-02T11:43:21;13.10;99.90
10692;DHT22;5396;50.950;6.988;2024-03-02T11:45:47;13.20;99.90
10692;DHT22;5396;50.950;6.988;2024-03-02T11:48:15;13.20;99.90
10692;DHT22;5396;50.950;6.988;2024-03-02T11:50:48;13.20;99.90
10692;DHT22;5396;50.950;6.988;2024-03-02T11:53:14;13.20;99.90
10692;DHT22;5396;50.950;6.988;2024-03-02T11:55:40;13.30;99.90
10692;DHT22;5396;50.950;6.988;2024-03-02T11:58:06;13.30;99.90
10692;DHT22;5396;50.950;6.988;2024-03-02T12:00:32;13.40;99.90
10692;DHT22;5396;50.950;6.988;2024-03-02T12:03:01;13.50;99.90
10692;DHT22;5396;50.950;6.988;2024-03-02T12:05:27;13.60;99.90
10692;DHT22;5396;50.950;6.988;2024-03-02T12:07:59;13.60;99.90
10692;DHT22;5396;50.950;6.988;2024-03-02T12:10:27;13.70;99.90
10692;DHT22;5396;50.950;6.988;2024-03-02T12:13:02;13.70;99.90
10692;DHT22;5396;50.950;6.988;2024-03-02T12:15:29;13.60;99.90
10692;DHT22;5396;50.950;6.988;2024-03-02T12:17:55;13.70;99.90
10692;DHT22;5396;50.950;6.988;2024-03-02T12:20:22;13.70;99.90
10692;DHT22;5396;50.950;6.988;2024-03-02T12:22:49;13.80;99.90
10692;DHT22;5396;50.950;6.988;2024-03-02T12:25:16;13.90;99.90
10692;DHT22;5396;50.950;6.988;2024-03-02T12:27:41;14.10;99.90
10692;DHT22;5396;50.950;6.988;2024-03-02T12:30:07;14.20;99.90
10692;DHT22;5396;50.950;6.988;2024-03-02T12:32:37;14.20;99.90
10692;DHT22;5396;50.950;6.988;2024-03-02T12:35:04;14.40;99.90
10692;DHT22;5396;50.950;6.988;2024-03-02T12:37:30;14.70;99.90
10692;DHT22;5396;50.950;6.988;2024-03-02T12:39:55;14.80;99.90
10692;DHT22;5396;50.950;6.988;2024-03-02T12:42:21;14.80;99.90
10692;DHT22;5396;50.950;6.988;2024-03-02T12:44:46;14.80;99.90
10692;DHT22;5396;50.950;6.988;2024-03-02T12:47:12;14.90;99.90
10692;DHT22;5396;50.950;6.988;2024-03-02T12:49:39;15.00;99.90
10692;DHT22;5396;50.950;6.988;2024-03-02T12:52:05;15.00;99.90
10692;DHT22;5396;50.950;6.988;2024-03-02T12:54:31;15.00;99.90
10692;DHT22;5396;50.950;6.988;2024-03-02T12:56:56;15.20;99.90
10692;DHT22;5396;50.950;6.988;2024-03-02T12:59:23;15.20;99.90
10692;DHT22;5396;50.950;6.988;2024-03-02T13:01:54;15.20;99.90
10692;DHT22;5396;50.950;6.988;2024-03-02T13:04:26;15.10;99.90
10692;DHT22;5396;50.950;6.988;2024-03-02T13:06:53;15.20;99.90
10692;DHT22;5396;50.950;6.988;2024-03-02T13:09:19;15.30;99.90
10692;DHT22;5396;50.950;6.988;2024-03-02T13:11:45;15.40;99.90
10692;DHT22;5396;50.950;6.988;2024-03-02T13:14:11;15.50;99.90
10692;DHT22;5396;50.950;6.988;2024-03-02T13:16:40;15.50;99.90
10692;DHT22;5396;50.950;6.988;2024-03-02T13:19:09;15.70;99.90
10692;DHT22;5396;50.950;6.988;2024-03-02T13:21:35;15.80;99.90
10692;DHT22;5396;50.950;6.988;2024-03-02T13:24:00;15.80;99.90
10692;DHT22;5396;50.950;6.988;2024-03-02T13:26:26;15.60;99.90
10692;DHT22;5396;50.950;6.988;2024-03-02T13:28:52;15.60;99.90
10692;DHT22;5396;50.950;6.988;2024-03-02T13:31:18;15.50;99.90
10692;DHT22;5396;50.950;6.988;2024-03-02T13:33:43;15.30;99.90
10692;DHT22;5396;50.950;6.988;2024-03-02T13:36:09;15.40;99.90
10692;DHT22;5396;50.950;6.988;2024-03-02T13:38:35;15.40;99.90
10692;DHT22;5396;50.950;6.988;2024-03-02T13:41:01;15.00;99.90
10692;DHT22;5396;50.950;6.988;2024-03-02T13:43:27;15.30;99.90
10692;DHT22;5396;50.950;6.988;2024-03-02T13:45:52;15.80;99.90
10692;DHT22;5396;50.950;6.988;2024-03-02T13:48:19;17.00;99.90
10692;DHT22;5396;50.950;6.988;2024-03-02T13:50:44;18.20;99.90
10692;DHT22;5396;50.950;6.988;2024-03-02T13:53:11;19.10;99.90
10692;DHT22;5396;50.950;6.988;2024-03-02T13:55:37;19.70;99.90
10692;DHT22;5396;50.950;6.988;2024-03-02T13:58:02;20.30;99.90
10692;DHT22;5396;50.950;6.988;2024-03-02T14:00:28;20.50;99.90
10692;DHT22;5396;50.950;6.988;2024-03-02T14:02:54;20.70;99.90
10692;DHT22;5396;50.950;6.988;2024-03-02T14:05:20;20.70;99.90
10692;DHT22;5396;50.950;6.988;2024-03-02T14:07:45;20.50;99.90
10692;DHT22;5396;50.950;6.988;2024-03-02T14:10:11;20.10;99.90
10692;DHT22;5396;50.950;6.988;2024-03-02T14:12:37;19.10;99.90
10692;DHT22;5396;50.950;6.988;2024-03-02T14:15:02;18.10;99.90
10692;DHT22;5396;50.950;6.988;2024-03-02T14:17:28;17.30;99.90
10692;DHT22;5396;50.950;6.988;2024-03-02T14:19:54;17.00;99.90
10692;DHT22;5396;50.950;6.988;2024-03-02T14:22:20;16.90;99.90
10692;DHT22;5396;50.950;6.988;2024-03-02T14:24:45;16.70;99.90
10692;DHT22;5396;50.950;6.988;2024-03-02T14:27:11;16.60;99.90
10692;DHT22;5396;50.950;6.988;2024-03-02T14:29:38;16.60;99.90
10692;DHT22;5396;50.950;6.988;2024-03-02T14:32:05;16.30;99.90
10692;DHT22;5396;50.950;6.988;2024-03-02T14:34:30;16.30;99.90
10692;DHT22;5396;50.950;6.988;2024-03-02T14:36:56;16.20;99.90
10692;DHT22;5396;50.950;6.988;2024-03-02T14:39:21;15.90;99.90
10692;DHT22;5396;50.950;6.988;2024-03-02T14:41:47;15.50;99.90
10692;DHT22;5396;50.950;6.988;2024-03-02T14:44:14;15.40;99.90
10692;DHT22;5396;50.950;6.988;2024-03-02T14:46:40;15.20;99.90
10692;DHT22;5396;50.950;6.988;2024-03-02T14:49:06;15.10;99.90
10692;DHT22;5396;50.950;6.988;2024-03-02T14:51:31;14.90;99.90
10692;DHT22;5396;50.950;6.988;2024-03-02T14:53:57;14.80;99.90
10692;DHT22;5396;50.950;6.988;2024-03-02T14:56:22;14.60;99.90
10692;DHT22;5396;50.950;6.988;2024-03-02T14:58:48;14.50;99.90
10692;DHT22;5396;50.950;6.988;2024-03-02T15:01:14;14.60;99.90
10692;DHT22;5396;50.950;6.988;2024-03-02T15:03:41;14.50;99.90
10692;DHT22;5396;50.950;6.988;2024-03-02T15:06:07;14.50;99.90
10692;DHT22;5396;50.950;6.988;2024-03-02T15:08:33;14.40;99.90
10692;DHT22;5396;50.950;6.988;2024-03-02T15:10:58;14.40;99.90
10692;DHT22;5396;50.950;6.988;2024-03-02T15:13:26;14.30;99.90
10692;DHT22;5396;50.950;6.988;2024-03-02T15:15:52;14.20;99.90
10692;DHT22;5396;50.950;6.988;2024-03-02T15:18:19;14.20;99.90
10692;DHT22;5396;50.950;6.988;2024-03-02T15:20:44;14.30;99.90
10692;DHT22;5396;50.950;6.988;2024-03-02T15:23:11;14.40;99.90
10692;DHT22;5396;50.950;6.988;2024-03-02T15:25:37;14.40;99.90
10692;DHT22;5396;50.950;6.988;2024-03-02T15:28:02;14.40;99.90
10692;DHT22;5396;50.950;6.988;2024-03-02T15:30:28;14.40;99.90
10692;DHT22;5396;50.950;6.988;2024-03-02T15:32:54;14.40;99.90
10692;DHT22;5396;50.950;6.988;2024-03-02T15:35:19;14.40;99.90
10692;DHT22;5396;50.950;6.988;2024-03-02T15:37:45;14.30;99.90
10692;DHT22;5396;50.950;6.988;2024-03-02T15:40:10;14.30;99.90
10692;DHT22;5396;50.950;6.988;2024-03-02T15:42:36;14.30;99.90
10692;DHT22;5396;50.950;6.988;2024-03-02T15:45:02;14.30;99.90
10692;DHT22;5396;50.950;6.988;2024-03-02T15:47:28;14.20;99.90
10692;DHT22;5396;50.950;6.988;2024-03-02T15:49:53;14.20;99.90
10692;DHT22;5396;50.950;6.988;2024-03-02T15:52:19;14.20;99.90
10692;DHT22;5396;50.950;6.988;2024-03-02T15:54:45;14.20;99.90